JEI434 EDDS-EDMO
Flight info
| Callsign | JEI434 |
|---|---|
| Flight time | 0h 28m |
| Altitude | 27000 |
| Route | ABTAL4B ABTAL L173 RIXED Y161 MAH |
| Aircraft | LJ35/M-SGHRWXY/SB1 |
Departure
| Time | 2026-05-07 19:44 |
|---|---|
| Airport | Stuttgart Airport (EDDS) |
Arrival
| Time | 2026-05-07 20:12 |
|---|---|
| Airport | Oberpfaffenhofen Airport (EDMO) |
| Time | Latitude | Longitude | Altitude | Speed | Heading |
|---|---|---|---|---|---|
| 2026-05-07 19:08 | 48.69127 | 9.21233 | 1261 ft | 0 kts | 165° |
| 2026-05-07 19:39 | 48.69105 | 9.21242 | 1260 ft | 7 kts | 165° |
| 2026-05-07 19:39 | 48.69077 | 9.21268 | 1259 ft | 7 kts | 103° |
| 2026-05-07 19:39 | 48.69095 | 9.21383 | 1260 ft | 15 kts | 73° |
| 2026-05-07 19:40 | 48.69122 | 9.21532 | 1259 ft | 10 kts | 75° |
| 2026-05-07 19:40 | 48.69133 | 9.21588 | 1251 ft | 9 kts | 72° |
| 2026-05-07 19:40 | 48.69159 | 9.21723 | 1248 ft | 17 kts | 73° |
| 2026-05-07 19:40 | 48.69198 | 9.21928 | 1247 ft | 24 kts | 73° |
| 2026-05-07 19:41 | 48.69248 | 9.22193 | 1237 ft | 26 kts | 73° |
| 2026-05-07 19:41 | 48.69295 | 9.22437 | 1231 ft | 22 kts | 73° |
| 2026-05-07 19:41 | 48.69337 | 9.22665 | 1227 ft | 18 kts | 75° |
| 2026-05-07 19:41 | 48.69365 | 9.22805 | 1224 ft | 13 kts | 73° |
| 2026-05-07 19:42 | 48.69396 | 9.22971 | 1220 ft | 17 kts | 73° |
| 2026-05-07 19:42 | 48.69402 | 9.23098 | 1217 ft | 16 kts | 114° |
| 2026-05-07 19:42 | 48.69284 | 9.23187 | 1209 ft | 24 kts | 165° |
| 2026-05-07 19:42 | 48.69186 | 9.23221 | 1207 ft | 9 kts | 213° |
| 2026-05-07 19:43 | 48.69175 | 9.23186 | 1208 ft | 0 kts | 256° |
| 2026-05-07 19:43 | 48.69127 | 9.22928 | 1213 ft | 82 kts | 254° |
| 2026-05-07 19:44 | 48.68877 | 9.21571 | 1547 ft | 164 kts | 257° |
| 2026-05-07 19:44 | 48.68555 | 9.19608 | 2507 ft | 216 kts | 257° |
| 2026-05-07 19:44 | 48.68175 | 9.17250 | 3368 ft | 242 kts | 255° |
| 2026-05-07 19:44 | 48.67645 | 9.14739 | 4356 ft | 258 kts | 251° |
| 2026-05-07 19:45 | 48.67082 | 9.12084 | 5273 ft | 271 kts | 253° |
| 2026-05-07 19:45 | 48.66334 | 9.09533 | 6229 ft | 267 kts | 234° |
| 2026-05-07 19:45 | 48.64928 | 9.07768 | 6986 ft | 270 kts | 207° |
| 2026-05-07 19:45 | 48.63086 | 9.07203 | 7713 ft | 275 kts | 179° |
| 2026-05-07 19:46 | 48.61246 | 9.08008 | 8413 ft | 281 kts | 153° |
| 2026-05-07 19:46 | 48.59791 | 9.09995 | 8830 ft | 290 kts | 126° |
| 2026-05-07 19:46 | 48.59048 | 9.12843 | 9273 ft | 297 kts | 100° |
| 2026-05-07 19:46 | 48.59196 | 9.15934 | 9698 ft | 301 kts | 73° |
| 2026-05-07 19:47 | 48.60049 | 9.18842 | 10114 ft | 303 kts | 59° |
| 2026-05-07 19:47 | 48.61025 | 9.21621 | 10499 ft | 305 kts | 67° |
| 2026-05-07 19:47 | 48.61620 | 9.24628 | 10889 ft | 307 kts | 75° |
| 2026-05-07 19:47 | 48.62285 | 9.27622 | 11517 ft | 317 kts | 67° |
| 2026-05-07 19:48 | 48.63219 | 9.30736 | 12326 ft | 334 kts | 65° |
| 2026-05-07 19:48 | 48.64119 | 9.33882 | 13528 ft | 334 kts | 66° |
| 2026-05-07 19:48 | 48.65036 | 9.37150 | 14187 ft | 345 kts | 66° |
| 2026-05-07 19:48 | 48.65976 | 9.40509 | 14786 ft | 354 kts | 66° |
| 2026-05-07 19:49 | 48.66944 | 9.43956 | 15411 ft | 361 kts | 66° |
| 2026-05-07 19:49 | 48.67937 | 9.47489 | 16050 ft | 367 kts | 66° |
| 2026-05-07 19:49 | 48.68932 | 9.51033 | 16702 ft | 368 kts | 66° |
| 2026-05-07 19:49 | 48.69924 | 9.54574 | 17361 ft | 363 kts | 66° |
| 2026-05-07 19:50 | 48.70900 | 9.58062 | 18028 ft | 358 kts | 66° |
| 2026-05-07 19:50 | 48.71866 | 9.61512 | 18660 ft | 354 kts | 66° |
| 2026-05-07 19:50 | 48.72823 | 9.64935 | 19251 ft | 351 kts | 66° |
| 2026-05-07 19:50 | 48.73760 | 9.68294 | 19855 ft | 348 kts | 66° |
| 2026-05-07 19:51 | 48.74697 | 9.71657 | 20479 ft | 346 kts | 66° |
| 2026-05-07 19:51 | 48.75625 | 9.74996 | 21106 ft | 343 kts | 66° |
| 2026-05-07 19:51 | 48.76549 | 9.78327 | 21753 ft | 341 kts | 66° |
| 2026-05-07 19:51 | 48.77454 | 9.81595 | 22408 ft | 340 kts | 66° |
| 2026-05-07 19:52 | 48.78351 | 9.84835 | 23069 ft | 338 kts | 66° |
| 2026-05-07 19:52 | 48.79232 | 9.88025 | 23725 ft | 336 kts | 66° |
| 2026-05-07 19:52 | 48.80148 | 9.91339 | 24008 ft | 349 kts | 65° |
| 2026-05-07 19:52 | 48.81131 | 9.94900 | 24051 ft | 383 kts | 66° |
| 2026-05-07 19:53 | 48.82187 | 9.98735 | 24078 ft | 413 kts | 66° |
| 2026-05-07 19:53 | 48.83327 | 10.02891 | 24105 ft | 437 kts | 66° |
| 2026-05-07 19:53 | 48.84407 | 10.07313 | 24106 ft | 455 kts | 73° |
| 2026-05-07 19:53 | 48.84983 | 10.12081 | 24108 ft | 461 kts | 84° |
| 2026-05-07 19:54 | 48.84968 | 10.16913 | 24095 ft | 456 kts | 96° |
| 2026-05-07 19:54 | 48.84558 | 10.21596 | 24112 ft | 452 kts | 98° |
| 2026-05-07 19:54 | 48.84179 | 10.26268 | 24107 ft | 449 kts | 97° |
| 2026-05-07 19:54 | 48.83815 | 10.30955 | 24105 ft | 447 kts | 97° |
| 2026-05-07 19:55 | 48.83428 | 10.35617 | 24094 ft | 445 kts | 99° |
| 2026-05-07 19:55 | 48.82592 | 10.40112 | 24088 ft | 442 kts | 113° |
| 2026-05-07 19:55 | 48.81185 | 10.44234 | 24088 ft | 439 kts | 124° |
| 2026-05-07 19:55 | 48.79277 | 10.47745 | 24082 ft | 435 kts | 138° |
| 2026-05-07 19:56 | 48.77098 | 10.50917 | 24086 ft | 434 kts | 137° |
| 2026-05-07 19:56 | 48.75013 | 10.54242 | 24089 ft | 435 kts | 135° |
| 2026-05-07 19:56 | 48.72964 | 10.57609 | 24091 ft | 434 kts | 134° |
| 2026-05-07 19:56 | 48.70937 | 10.60936 | 24091 ft | 434 kts | 135° |
| 2026-05-07 19:57 | 48.68895 | 10.64259 | 24092 ft | 434 kts | 135° |
| 2026-05-07 19:57 | 48.66831 | 10.67592 | 24086 ft | 434 kts | 135° |
| 2026-05-07 19:57 | 48.64789 | 10.70863 | 24085 ft | 434 kts | 135° |
| 2026-05-07 19:57 | 48.62709 | 10.74178 | 24084 ft | 434 kts | 135° |
| 2026-05-07 19:58 | 48.60625 | 10.77488 | 24084 ft | 434 kts | 135° |
| 2026-05-07 19:58 | 48.58545 | 10.80783 | 24079 ft | 434 kts | 136° |
| 2026-05-07 19:58 | 48.56463 | 10.84093 | 24066 ft | 434 kts | 135° |
| 2026-05-07 19:58 | 48.54393 | 10.87405 | 24071 ft | 433 kts | 135° |
| 2026-05-07 19:59 | 48.52328 | 10.90713 | 24072 ft | 433 kts | 135° |
| 2026-05-07 19:59 | 48.50279 | 10.93991 | 24074 ft | 433 kts | 135° |
| 2026-05-07 19:59 | 48.48207 | 10.97292 | 24072 ft | 433 kts | 135° |
| 2026-05-07 19:59 | 48.46108 | 11.00577 | 24074 ft | 433 kts | 136° |
| 2026-05-07 20:00 | 48.44057 | 11.03766 | 24072 ft | 433 kts | 136° |
| 2026-05-07 20:00 | 48.41963 | 11.07018 | 24043 ft | 434 kts | 136° |
| 2026-05-07 20:00 | 48.39868 | 11.10270 | 23748 ft | 430 kts | 136° |
| 2026-05-07 20:00 | 48.37789 | 11.13496 | 23217 ft | 429 kts | 136° |
| 2026-05-07 20:01 | 48.35771 | 11.16630 | 22628 ft | 413 kts | 136° |
| 2026-05-07 20:01 | 48.33798 | 11.19692 | 22036 ft | 402 kts | 136° |
| 2026-05-07 20:01 | 48.31877 | 11.22667 | 21450 ft | 392 kts | 136° |
| 2026-05-07 20:01 | 48.29992 | 11.25582 | 20879 ft | 385 kts | 136° |
| 2026-05-07 20:02 | 48.27988 | 11.28163 | 20294 ft | 373 kts | 149° |
| 2026-05-07 20:02 | 48.25747 | 11.29798 | 19589 ft | 349 kts | 164° |
| 2026-05-07 20:02 | 48.23462 | 11.30506 | 18883 ft | 330 kts | 178° |
| 2026-05-07 20:02 | 48.21253 | 11.30369 | 18150 ft | 314 kts | 191° |
| 2026-05-07 20:03 | 48.19128 | 11.29971 | 17377 ft | 305 kts | 189° |
| 2026-05-07 20:03 | 48.17054 | 11.29667 | 16635 ft | 297 kts | 189° |
| 2026-05-07 20:03 | 48.15011 | 11.29559 | 15894 ft | 295 kts | 176° |
| 2026-05-07 20:03 | 48.13093 | 11.30627 | 15165 ft | 298 kts | 150° |
| 2026-05-07 20:04 | 48.11670 | 11.32792 | 14475 ft | 300 kts | 124° |
| 2026-05-07 20:04 | 48.11109 | 11.34680 | 14023 ft | 300 kts | 107° |
| 2026-05-07 20:04 | 48.11144 | 11.38756 | 13055 ft | 296 kts | 72° |
| 2026-05-07 20:04 | 48.11549 | 11.40711 | 12586 ft | 292 kts | 73° |
| 2026-05-07 20:05 | 48.12048 | 11.43606 | 11869 ft | 289 kts | 76° |
| 2026-05-07 20:05 | 48.12661 | 11.47498 | 10840 ft | 289 kts | 76° |
| 2026-05-07 20:05 | 48.12967 | 11.49481 | 10330 ft | 289 kts | 76° |
| 2026-05-07 20:05 | 48.13719 | 11.52221 | 9546 ft | 286 kts | 58° |
| 2026-05-07 20:06 | 48.14763 | 11.54742 | 8730 ft | 284 kts | 55° |
| 2026-05-07 20:06 | 48.15908 | 11.57123 | 7930 ft | 279 kts | 44° |
| 2026-05-07 20:06 | 48.17511 | 11.58618 | 7281 ft | 267 kts | 15° |
| 2026-05-07 20:06 | 48.19288 | 11.59154 | 6763 ft | 254 kts | 0° |
| 2026-05-07 20:07 | 48.20947 | 11.58604 | 6236 ft | 241 kts | 329° |
| 2026-05-07 20:07 | 48.22091 | 11.56895 | 5768 ft | 230 kts | 297° |
| 2026-05-07 20:07 | 48.22392 | 11.54621 | 5348 ft | 222 kts | 263° |
| 2026-05-07 20:07 | 48.21845 | 11.52532 | 4976 ft | 216 kts | 237° |
| 2026-05-07 20:08 | 48.20960 | 11.50744 | 4584 ft | 212 kts | 232° |
| 2026-05-07 20:08 | 48.20009 | 11.49080 | 4256 ft | 206 kts | 226° |
| 2026-05-07 20:08 | 48.19195 | 11.47324 | 4098 ft | 205 kts | 240° |
| 2026-05-07 20:08 | 48.18617 | 11.45395 | 4038 ft | 201 kts | 250° |
| 2026-05-07 20:09 | 48.18093 | 11.43492 | 4010 ft | 196 kts | 246° |
| 2026-05-07 20:09 | 48.17621 | 11.41632 | 3999 ft | 191 kts | 251° |
| 2026-05-07 20:09 | 48.16932 | 11.39988 | 3990 ft | 191 kts | 225° |
| 2026-05-07 20:10 | 48.14901 | 11.37540 | 3857 ft | 181 kts | 219° |
| 2026-05-07 20:10 | 48.14014 | 11.36373 | 3613 ft | 161 kts | 223° |
| 2026-05-07 20:10 | 48.13228 | 11.35258 | 3260 ft | 153 kts | 225° |
| 2026-05-07 20:10 | 48.12453 | 11.34195 | 2939 ft | 149 kts | 218° |
| 2026-05-07 20:11 | 48.11719 | 11.33240 | 2808 ft | 135 kts | 227° |
| 2026-05-07 20:11 | 48.11032 | 11.32261 | 2534 ft | 137 kts | 220° |
| 2026-05-07 20:11 | 48.10332 | 11.31332 | 2356 ft | 134 kts | 224° |
| 2026-05-07 20:11 | 48.09649 | 11.30385 | 2171 ft | 133 kts | 223° |
| 2026-05-07 20:12 | 48.08971 | 11.29453 | 1982 ft | 130 kts | 224° |
| 2026-05-07 20:12 | 48.08384 | 11.28643 | 1926 ft | 96 kts | 219° |
| 2026-05-07 20:12 | 48.08046 | 11.28180 | 1923 ft | 34 kts | 226° |
| 2026-05-07 20:12 | 48.07963 | 11.28074 | 1923 ft | 11 kts | 104° |
| 2026-05-07 20:13 | 48.08058 | 11.28207 | 1923 ft | 24 kts | 43° |
| 2026-05-07 20:13 | 48.08147 | 11.28269 | 1922 ft | 13 kts | 324° |
| 2026-05-07 20:13 | 48.08226 | 11.28149 | 1919 ft | 19 kts | 314° |
| 2026-05-07 20:13 | 48.08310 | 11.28062 | 1919 ft | 14 kts | 40° |
| 2026-05-07 20:14 | 48.08415 | 11.28211 | 1919 ft | 29 kts | 43° |
| 2026-05-07 20:14 | 48.08571 | 11.28419 | 1919 ft | 31 kts | 41° |
| 2026-05-07 20:14 | 48.08726 | 11.28626 | 1919 ft | 31 kts | 41° |
| 2026-05-07 20:14 | 48.08858 | 11.28839 | 1919 ft | 24 kts | 74° |
| 2026-05-07 20:15 | 48.08864 | 11.29112 | 1920 ft | 28 kts | 88° |
| 2026-05-07 20:15 | 48.08839 | 11.29298 | 1923 ft | 12 kts | 127° |
| 2026-05-07 20:15 | 48.08764 | 11.29329 | 1920 ft | 15 kts | 168° |
| 2026-05-07 20:15 | 48.08722 | 11.29431 | 1919 ft | 7 kts | 103° |
| 2026-05-07 20:16 | 48.08731 | 11.29464 | 1919 ft | 1 kts | 47° |
| 2026-05-07 20:16 | 48.08732 | 11.29466 | 1919 ft | 0 kts | 46° |